»·PEaware :: DAL1434 KATL-KPBI

DAL1434 :: KATL-KPBI

FLIGHT INFORMATION

Flight Status: Arrived
Operator:
Delta Air Lines
More flights by this operator :: More flights under this callsign
Pilot: Andrew J. (13363)
Aircraft: BOEING 737-900
(B739)
More flights by this aircraft type
Origin: KATL Hartsfield-Jackson Atlanta
United States
Destination: KPBI Palm Beach Intl
United States
More flights between these airports :: More routes between these airports
Route: SMLTZ2 WALET YUESS Q79 DOFFY MOLIE WLACE4
File this flight plan on PilotEdge
Remarks:
Altitude:
(Current/Filed)
39,000ft
Speed:
(Current/Filed)
461kts
Departed: 24-Mar-20 12:03 PM
Arrived: 24-Mar-20 01:22 PM
Distance/Time
Traveled:
474nm/1:19
Distance/Time
To Go:
Arrived

Flight Plot

Page will automatically refresh every two minutes.

Flight plan parsing failed; only flown route is shown


Map Options




Map Legend


Flown Route
Filed Route
Departure Airport
Arrival Airport
Navaid (VOR, NDB)
Fix

Horizontal Profiles

Position Reports

Time Latitude Longitude Heading Altitude Ground
Speed
24-Mar-20 11:50 33.638384 -84.438615 270 1025ft 0kts
24-Mar-20 11:51 33.638384 -84.438615 270 1025ft 0kts
24-Mar-20 11:52 33.638384 -84.438615 270 1025ft 0kts
24-Mar-20 11:53 33.638385 -84.438181 269 1025ft 2kts
24-Mar-20 11:54 33.638076 -84.437864 0 1025ft 0kts
24-Mar-20 11:55 33.638076 -84.437864 0 1025ft 0kts
24-Mar-20 11:56 33.638526 -84.437864 359 1025ft 5kts
24-Mar-20 11:57 33.641393 -84.437873 1 1025ft 14kts
24-Mar-20 11:58 33.645399 -84.436541 80 1025ft 15kts
24-Mar-20 11:59 33.645411 -84.430421 90 1027ft 21kts
24-Mar-20 12:00 33.645386 -84.420689 90 1014ft 38kts
24-Mar-20 12:01 33.645496 -84.406677 81 1035ft 34kts
24-Mar-20 12:02 33.646728 -84.416733 270 1011ft 129kts
24-Mar-20 12:03 33.648201 -84.473042 273 3351ft 184kts
24-Mar-20 12:04 33.661477 -84.540450 280 6036ft 222kts
24-Mar-20 12:05 33.653948 -84.616745 243 8946ft 248kts
24-Mar-20 12:06 33.606595 -84.677377 215 12422ft 265kts
24-Mar-20 12:07 33.538186 -84.690607 181 15353ft 308kts
24-Mar-20 12:08 33.441220 -84.669440 171 18267ft 357kts
24-Mar-20 12:09 33.352947 -84.588977 142 20490ft 431kts
24-Mar-20 12:10 33.264852 -84.484721 143 23257ft 456kts
24-Mar-20 12:11 33.171757 -84.375182 143 25730ft 482kts
24-Mar-20 12:12 33.073822 -84.260240 143 27939ft 506kts
24-Mar-20 12:13 32.961009 -84.161368 163 30035ft 505kts
24-Mar-20 12:14 32.829668 -84.102848 170 32314ft 505kts
24-Mar-20 12:15 32.696552 -84.048228 170 34516ft 508kts
24-Mar-20 12:16 32.564356 -83.994073 170 36661ft 503kts
24-Mar-20 12:17 32.438754 -83.942802 170 38225ft 502kts
24-Mar-20 12:18 32.307265 -83.883090 164 39074ft 523kts
24-Mar-20 12:19 32.174242 -83.813056 164 39077ft 520kts
24-Mar-20 12:20 32.041527 -83.743993 164 39084ft 521kts
24-Mar-20 12:21 31.908834 -83.675096 164 39088ft 522kts
24-Mar-20 12:22 31.776409 -83.606560 164 39083ft 521kts
24-Mar-20 12:23 31.643822 -83.540734 169 39090ft 516kts
24-Mar-20 12:24 31.508644 -83.482577 168 39085ft 517kts
24-Mar-20 12:25 31.374278 -83.424197 168 39087ft 516kts
24-Mar-20 12:26 31.239592 -83.365878 168 39089ft 517kts
24-Mar-20 12:27 31.108457 -83.309193 169 39071ft 514kts
24-Mar-20 12:28 30.974124 -83.251380 168 39079ft 514kts
24-Mar-20 12:29 30.851269 -83.198637 166 39078ft 507kts
24-Mar-20 12:30 30.719252 -83.142166 166 39086ft 508kts
24-Mar-20 12:31 30.586615 -83.085558 166 39088ft 508kts
24-Mar-20 12:32 30.454260 -83.029244 166 39091ft 508kts
24-Mar-20 12:33 30.321014 -82.972724 166 39103ft 510kts
24-Mar-20 12:34 30.187627 -82.916294 166 39115ft 511kts
24-Mar-20 12:35 30.054272 -82.860052 166 39122ft 512kts
24-Mar-20 12:36 29.919819 -82.803502 166 39120ft 514kts
24-Mar-20 12:37 29.816519 -82.760166 166 39119ft 514kts
24-Mar-20 12:38 29.682668 -82.704160 166 39132ft 514kts
24-Mar-20 12:39 29.548037 -82.647984 166 39139ft 515kts
24-Mar-20 12:40 29.413058 -82.591824 166 39141ft 514kts
24-Mar-20 12:41 29.278866 -82.536291 168 39139ft 512kts
24-Mar-20 12:42 29.141883 -82.506369 179 39146ft 502kts
24-Mar-20 12:43 29.004014 -82.481452 176 39147ft 501kts
24-Mar-20 12:44 28.877620 -82.458583 175 39136ft 497kts
24-Mar-20 12:45 28.738495 -82.433486 175 39135ft 499kts
24-Mar-20 12:46 28.601674 -82.408857 175 39136ft 498kts
24-Mar-20 12:47 28.464773 -82.384312 175 39151ft 510kts
24-Mar-20 12:48 28.322913 -82.358872 175 39137ft 513kts
24-Mar-20 12:49 28.182667 -82.333800 176 38520ft 510kts
24-Mar-20 12:50 28.043071 -82.308735 173 36393ft 511kts
24-Mar-20 12:51 27.906030 -82.263418 167 35151ft 513kts
24-Mar-20 12:52 27.880472 -82.254577 167 35137ft 520kts
24-Mar-20 12:54 27.770828 -82.216694 166 34096ft 521kts
24-Mar-20 12:55 27.632948 -82.169173 167 31939ft 518kts
24-Mar-20 12:56 27.497291 -82.122530 167 30289ft 501kts
24-Mar-20 12:57 27.365963 -82.078174 168 28740ft 484kts
24-Mar-20 12:58 27.239127 -82.036031 168 27171ft 469kts
24-Mar-20 12:59 27.115176 -81.994912 168 25039ft 468kts
24-Mar-20 13:00 26.993900 -81.954050 167 24154ft 434kts
24-Mar-20 13:01 26.897391 -81.907084 148 24160ft 440kts
24-Mar-20 13:02 26.818361 -81.828462 138 22590ft 442kts
24-Mar-20 13:03 26.739755 -81.719885 117 19637ft 463kts
24-Mar-20 13:04 26.710295 -81.586380 90 19126ft 416kts
24-Mar-20 13:05 26.728803 -81.461780 74 17928ft 409kts
24-Mar-20 13:06 26.756047 -81.346443 75 16189ft 406kts
24-Mar-20 13:07 26.784043 -81.227083 75 14313ft 379kts
24-Mar-20 13:08 26.810434 -81.114046 75 12675ft 372kts
24-Mar-20 13:09 26.825125 -81.001974 84 11078ft 351kts
24-Mar-20 13:10 26.834839 -80.896829 86 10218ft 348kts
24-Mar-20 13:11 26.816045 -80.794948 111 9108ft 331kts
24-Mar-20 13:12 26.781920 -80.700388 113 7783ft 311kts
24-Mar-20 13:13 26.751227 -80.615992 113 6625ft 283kts
24-Mar-20 13:13 26.726565 -80.548319 113 5681ft 282kts
24-Mar-20 13:15 26.698798 -80.453131 97 4407ft 263kts
24-Mar-20 13:16 26.694558 -80.372690 94 3329ft 253kts
24-Mar-20 13:16 26.691856 -80.311208 95 2996ft 220kts
24-Mar-20 13:17 26.688869 -80.241508 95 2453ft 225kts
24-Mar-20 13:19 26.685704 -80.165934 96 1122ft 179kts
24-Mar-20 13:19 26.684093 -80.126469 97 425ft 143kts
24-Mar-20 13:20 26.682384 -80.089746 96 17ft 49kts
24-Mar-20 13:21 26.684360 -80.087125 268 17ft 10kts
24-Mar-20 13:22 26.684445 -80.089809 272 17ft 8kts
24-Mar-20 13:23 26.686961 -80.090445 86 17ft 7kts
24-Mar-20 13:24 26.686939 -80.089927 91 17ft 0kts
24-Mar-20 13:25 26.686939 -80.089927 91 17ft 0kts
24-Mar-20 13:26 26.686939 -80.089927 91 17ft 0kts
24-Mar-20 13:27 26.686939 -80.089927 91 17ft 0kts
24-Mar-20 13:28 26.686939 -80.089927 91 17ft 0kts
24-Mar-20 13:29 26.686939 -80.089927 91 17ft 0kts
24-Mar-20 13:30 26.686939 -80.089927 91 17ft 0kts
24-Mar-20 13:31 26.686939 -80.089927 91 17ft 0kts
24-Mar-20 13:32 26.686939 -80.089927 91 17ft 0kts
24-Mar-20 13:33 26.686939 -80.089927 91 17ft 0kts
24-Mar-20 13:34 26.686939 -80.089927 91 17ft 0kts
24-Mar-20 13:35 26.686939 -80.089927 91 17ft 0kts

Navigation Log

Ident Type
Flight plan parsing failed, navigation log unavailable